Time;durP1;ratioP1;P1;durP2;ratioP2;P2;SDS_P1;SDS_P2;PMS_P1;PMS_P2;Temp;Humidity;BMP_temperature;BMP_pressure;BME280_temperature;BME280_humidity;BME280_pressure;Samples;Min_cycle;Max_cycle;Signal;HPM_P1;HPM_P2
2022/07/04 00:00:08;;;;;;;2.70;1.17;;;16.80;99.90;;;;;;5026291;28;20025;-34
2022/07/04 00:02:33;;;;;;;3.42;1.73;;;16.80;99.90;;;;;;5025505;28;20102;-34
2022/07/04 00:04:59;;;;;;;3.17;1.63;;;16.80;99.90;;;;;;5026258;28;20067;-34
2022/07/04 00:07:25;;;;;;;3.72;1.60;;;16.80;99.90;;;;;;5025998;28;20025;-34
2022/07/04 00:09:51;;;;;;;3.40;1.60;;;16.70;99.90;;;;;;5027088;28;20516;-34
2022/07/04 00:12:16;;;;;;;2.42;1.48;;;16.70;99.90;;;;;;5025759;28;20552;-33
2022/07/04 00:14:42;;;;;;;3.70;1.40;;;16.70;99.90;;;;;;5026433;28;20021;-34
2022/07/04 00:17:08;;;;;;;2.28;1.58;;;16.60;99.90;;;;;;5026355;28;20037;-39
2022/07/04 00:19:34;;;;;;;3.13;1.67;;;16.60;99.90;;;;;;5024990;28;20056;-34
2022/07/04 00:22:00;;;;;;;4.07;1.80;;;16.60;99.90;;;;;;5026791;28;20084;-34
2022/07/04 00:24:25;;;;;;;1.90;1.48;;;16.60;99.90;;;;;;5025349;28;20466;-36
2022/07/04 00:26:51;;;;;;;1.63;1.38;;;16.60;99.90;;;;;;5025525;28;20068;-34
2022/07/04 00:29:17;;;;;;;1.88;1.50;;;16.60;99.90;;;;;;5026349;28;20524;-34
2022/07/04 00:31:42;;;;;;;3.60;1.50;;;16.60;99.90;;;;;;5026272;28;20061;-33
2022/07/04 00:34:08;;;;;;;2.45;1.40;;;16.60;99.90;;;;;;5025853;28;20359;-35
2022/07/04 00:36:33;;;;;;;3.67;1.58;;;16.60;99.90;;;;;;5025976;28;20483;-34
2022/07/04 00:38:59;;;;;;;2.60;1.55;;;16.60;99.90;;;;;;5026347;28;20076;-34
2022/07/04 00:41:24;;;;;;;4.68;1.50;;;16.70;99.90;;;;;;5024938;28;20045;-35
2022/07/04 00:44:04;;;;;;;2.92;1.80;;;16.60;99.90;;;;;;5026127;28;20101;-35
2022/07/04 00:46:30;;;;;;;3.22;1.95;;;16.60;99.90;;;;;;5025643;28;20029;-34
2022/07/04 00:48:56;;;;;;;3.63;1.80;;;16.60;99.90;;;;;;5024918;28;20024;-34
2022/07/04 00:51:23;;;;;;;3.17;1.58;;;16.60;99.90;;;;;;5025015;28;20041;-34
2022/07/04 00:53:50;;;;;;;2.50;1.50;;;16.50;99.90;;;;;;5025732;28;20564;-34
2022/07/04 00:56:16;;;;;;;5.65;1.77;;;16.50;99.90;;;;;;5024951;28;20555;-43
2022/07/04 00:58:41;;;;;;;2.80;1.45;;;16.50;99.90;;;;;;5025617;28;20025;-37
2022/07/04 01:01:07;;;;;;;3.55;1.73;;;16.50;99.90;;;;;;5024993;28;20107;-34
2022/07/04 01:03:32;;;;;;;2.72;1.50;;;16.60;99.90;;;;;;5024367;28;20159;-35
2022/07/04 01:06:00;;;;;;;5.43;1.77;;;16.50;99.90;;;;;;5025771;28;20411;-34
2022/07/04 01:08:26;;;;;;;2.95;1.58;;;16.50;99.90;;;;;;5024668;28;20052;-34
2022/07/04 01:10:51;;;;;;;4.15;1.70;;;16.50;99.90;;;;;;5025344;28;20013;-34
2022/07/04 01:13:23;;;;;;;2.60;1.33;;;16.50;99.90;;;;;;5025249;28;20045;-34
2022/07/04 01:15:50;;;;;;;3.08;1.55;;;16.50;99.90;;;;;;5023881;28;20033;-34
2022/07/04 01:18:17;;;;;;;2.45;1.60;;;16.50;99.90;;;;;;5025704;28;20024;-34
2022/07/04 01:20:43;;;;;;;4.22;1.50;;;16.50;99.90;;;;;;5025060;28;20112;-33
2022/07/04 01:23:09;;;;;;;3.30;1.55;;;16.40;99.90;;;;;;5025045;28;20033;-33
2022/07/04 01:25:34;;;;;;;3.08;1.55;;;16.40;99.90;;;;;;5024989;28;20030;-34
2022/07/04 01:28:00;;;;;;;3.33;1.67;;;16.40;99.90;;;;;;5025343;28;20088;-34
2022/07/04 01:30:27;;;;;;;4.20;2.05;;;16.30;99.90;;;;;;5024292;28;20021;-34
2022/07/04 01:32:53;;;;;;;4.05;1.90;;;16.30;99.90;;;;;;5025548;28;20361;-34
2022/07/04 01:35:19;;;;;;;3.75;1.50;;;16.30;99.90;;;;;;5026107;28;20018;-34
2022/07/04 01:37:51;;;;;;;3.65;1.70;;;16.20;99.90;;;;;;5028990;28;20036;-33
2022/07/04 01:40:18;;;;;;;4.82;1.75;;;16.20;99.90;;;;;;5028692;28;20021;-33
2022/07/04 01:42:43;;;;;;;2.92;1.80;;;16.20;99.90;;;;;;5029236;28;20033;-34
2022/07/04 01:45:11;;;;;;;2.75;1.48;;;16.10;99.90;;;;;;5029133;28;20381;-34
2022/07/04 01:47:37;;;;;;;7.82;2.78;;;16.10;99.90;;;;;;5029160;28;20136;-34
2022/07/04 01:50:04;;;;;;;4.55;1.85;;;16.10;99.90;;;;;;5029594;28;20017;-35
2022/07/04 01:52:30;;;;;;;2.83;1.75;;;16.10;99.90;;;;;;5027485;28;20033;-34
2022/07/04 01:54:56;;;;;;;2.80;2.15;;;16.10;99.90;;;;;;5029119;28;20043;-33
2022/07/04 01:57:21;;;;;;;2.53;1.73;;;16.00;99.90;;;;;;5028415;28;20036;-34
2022/07/04 02:02:31;;;;;;;2.72;1.50;;;16.00;99.90;;;;;;5020043;28;20576;-35
2022/07/04 02:04:57;;;;;;;2.30;1.83;;;16.00;99.90;;;;;;5008169;28;20113;-33
2022/07/04 02:07:23;;;;;;;2.78;1.50;;;15.90;99.90;;;;;;5020988;28;20493;-35
2022/07/04 02:09:48;;;;;;;3.08;1.75;;;15.90;99.90;;;;;;5009652;28;20028;-33
2022/07/04 02:14:58;;;;;;;4.28;2.05;;;15.90;99.90;;;;;;5009350;28;20064;-33
2022/07/04 02:17:23;;;;;;;3.30;1.85;;;15.90;99.90;;;;;;5020648;28;20061;-34
2022/07/04 02:19:49;;;;;;;4.90;2.20;;;15.90;99.90;;;;;;5008212;28;20060;-35
2022/07/04 02:22:15;;;;;;;2.13;1.90;;;15.80;99.90;;;;;;5022154;28;20296;-34
2022/07/04 02:24:41;;;;;;;3.78;2.00;;;15.80;99.90;;;;;;5028250;28;20548;-34
2022/07/04 02:27:06;;;;;;;4.25;2.00;;;15.80;99.90;;;;;;5028477;28;20017;-34
2022/07/04 02:29:32;;;;;;;5.93;1.98;;;15.80;99.90;;;;;;5028516;28;20059;-33
2022/07/04 02:31:58;;;;;;;3.38;1.90;;;15.80;99.90;;;;;;5029303;28;20025;-34
2022/07/04 02:34:24;;;;;;;3.05;2.03;;;15.80;99.90;;;;;;5027664;28;20022;-35
2022/07/04 02:36:50;;;;;;;3.08;1.90;;;15.70;99.90;;;;;;5028570;28;20276;-33
2022/07/04 02:39:15;;;;;;;6.25;1.70;;;15.70;99.90;;;;;;5028876;28;20033;-34
2022/07/04 02:41:41;;;;;;;3.25;2.13;;;15.70;99.90;;;;;;5027213;28;20459;-33
2022/07/04 02:44:06;;;;;;;2.38;1.88;;;15.70;99.90;;;;;;5028526;28;20037;-34
2022/07/04 02:46:33;;;;;;;4.68;2.00;;;15.70;99.90;;;;;;5027608;28;20500;-35
2022/07/04 02:48:59;;;;;;;4.03;2.35;;;15.70;99.90;;;;;;5027320;28;20017;-35
2022/07/04 02:51:25;;;;;;;3.88;2.60;;;15.60;99.90;;;;;;5027911;28;20025;-34
2022/07/04 02:53:50;;;;;;;4.38;2.25;;;15.60;99.90;;;;;;5027545;28;20080;-34
2022/07/04 02:56:16;;;;;;;3.80;2.40;;;15.60;99.90;;;;;;5028383;28;20037;-34
2022/07/04 02:58:41;;;;;;;5.25;2.85;;;15.60;99.90;;;;;;5027641;28;20847;-34
2022/07/04 03:01:07;;;;;;;2.83;2.42;;;15.60;99.90;;;;;;5027323;28;20049;-34
2022/07/04 03:03:33;;;;;;;5.28;2.70;;;15.60;99.90;;;;;;5027894;28;20061;-33
2022/07/04 03:05:58;;;;;;;4.47;2.70;;;15.60;99.90;;;;;;5027904;28;20095;-33
2022/07/04 03:08:24;;;;;;;3.65;2.83;;;15.60;99.90;;;;;;5026600;28;20079;-33
2022/07/04 03:10:53;;;;;;;4.00;2.88;;;15.50;99.90;;;;;;5028341;28;20112;-33
2022/07/04 03:13:19;;;;;;;3.65;3.05;;;15.40;99.90;;;;;;5027254;28;20039;-35
2022/07/04 03:15:45;;;;;;;4.43;3.15;;;15.40;99.90;;;;;;5026954;28;20030;-34
2022/07/04 03:18:11;;;;;;;5.72;3.67;;;15.40;99.90;;;;;;5027356;28;20021;-36
2022/07/04 03:20:37;;;;;;;5.07;4.28;;;15.30;99.90;;;;;;5027610;28;20026;-35
2022/07/04 03:23:02;;;;;;;5.13;4.20;;;15.30;99.90;;;;;;5026942;28;20131;-35
2022/07/04 03:25:28;;;;;;;5.15;4.38;;;15.20;99.90;;;;;;5027015;28;20026;-34
2022/07/04 03:27:53;;;;;;;5.10;4.28;;;15.20;99.90;;;;;;5027380;28;20033;-35
2022/07/04 03:30:19;;;;;;;5.10;4.03;;;15.30;99.90;;;;;;5026347;28;20021;-35
2022/07/04 03:32:44;;;;;;;8.75;4.70;;;15.30;99.90;;;;;;5027058;28;20047;-35
2022/07/04 03:35:10;;;;;;;6.95;4.32;;;15.30;99.90;;;;;;5026758;28;20380;-35
2022/07/04 03:37:35;;;;;;;6.55;4.82;;;15.30;99.90;;;;;;5026295;28;20032;-34
2022/07/04 03:40:01;;;;;;;4.85;4.32;;;15.30;99.90;;;;;;5027261;28;20029;-33
2022/07/04 03:42:27;;;;;;;6.88;4.57;;;15.40;99.90;;;;;;5025577;28;20061;-33
2022/07/04 03:44:52;;;;;;;5.90;4.60;;;15.40;99.90;;;;;;5022167;28;20045;-35
2022/07/04 03:47:18;;;;;;;4.25;3.90;;;15.40;99.90;;;;;;5027239;28;20033;-35
2022/07/04 03:49:44;;;;;;;5.68;4.85;;;15.40;99.90;;;;;;5026469;28;20025;-35
2022/07/04 03:52:09;;;;;;;7.50;4.82;;;15.40;99.90;;;;;;5026535;28;20030;-34
2022/07/04 03:54:35;;;;;;;5.97;4.95;;;15.40;99.90;;;;;;5026095;28;20014;-34
2022/07/04 03:57:00;;;;;;;4.90;4.40;;;15.40;99.90;;;;;;5026375;28;20536;-36
2022/07/04 03:59:26;;;;;;;5.13;4.57;;;15.40;99.90;;;;;;5026639;28;20036;-34
2022/07/04 04:01:52;;;;;;;5.60;4.82;;;15.40;99.90;;;;;;5026556;28;20056;-33
2022/07/04 04:07:02;;;;;;;5.15;4.55;;;15.40;99.90;;;;;;5026631;28;20456;-33
2022/07/04 04:09:28;;;;;;;6.10;5.10;;;15.30;99.90;;;;;;5026372;28;20018;-34
2022/07/04 04:11:53;;;;;;;5.70;4.55;;;15.30;99.90;;;;;;5026012;28;20087;-35
2022/07/04 04:14:19;;;;;;;5.75;4.95;;;15.30;99.90;;;;;;5026694;28;20036;-35
2022/07/04 04:16:45;;;;;;;7.10;4.70;;;15.30;99.90;;;;;;5026520;28;20444;-34
2022/07/04 04:19:11;;;;;;;6.78;4.90;;;15.30;99.90;;;;;;5025566;28;20112;-35
2022/07/04 04:21:37;;;;;;;6.85;4.82;;;15.30;99.90;;;;;;5026114;28;20037;-35
2022/07/04 04:24:03;;;;;;;5.70;4.90;;;15.30;99.90;;;;;;5026431;28;20032;-34
2022/07/04 04:26:29;;;;;;;5.47;4.68;;;15.30;99.90;;;;;;5024691;28;20040;-34
2022/07/04 04:28:55;;;;;;;7.25;5.07;;;15.40;99.90;;;;;;5026846;28;20420;-35
2022/07/04 04:31:20;;;;;;;6.07;5.47;;;15.40;99.90;;;;;;5025531;28;20362;-36
2022/07/04 04:33:46;;;;;;;5.63;4.63;;;15.40;99.90;;;;;;5025465;28;20061;-34
2022/07/04 04:36:11;;;;;;;6.32;4.47;;;15.40;99.90;;;;;;5026731;28;20056;-37
2022/07/04 04:38:37;;;;;;;6.20;4.85;;;15.50;99.90;;;;;;5025911;28;20115;-35
2022/07/04 04:41:03;;;;;;;6.45;4.32;;;15.50;99.90;;;;;;5025221;28;20071;-34
2022/07/04 04:43:28;;;;;;;4.70;4.22;;;15.50;99.90;;;;;;5025414;28;20094;-35
2022/07/04 04:45:54;;;;;;;5.50;4.60;;;15.50;99.90;;;;;;5025896;28;20107;-36
2022/07/04 04:48:20;;;;;;;5.45;4.10;;;15.50;99.90;;;;;;5024744;28;20079;-35
2022/07/04 04:50:45;;;;;;;5.32;4.35;;;15.50;99.90;;;;;;5025589;28;20064;-34
2022/07/04 04:53:11;;;;;;;4.65;4.10;;;15.50;99.90;;;;;;5022823;28;20029;-35
2022/07/04 04:55:37;;;;;;;4.55;4.15;;;15.60;99.90;;;;;;5024952;28;20105;-35
2022/07/04 04:58:02;;;;;;;5.47;3.67;;;15.60;99.90;;;;;;5025951;28;20117;-36
2022/07/04 05:00:28;;;;;;;5.20;4.03;;;15.60;99.90;;;;;;5025118;28;20046;-35
2022/07/04 05:02:53;;;;;;;4.28;3.63;;;15.60;99.90;;;;;;5025535;28;20116;-35
2022/07/04 05:05:19;;;;;;;6.82;3.88;;;15.60;99.90;;;;;;5025406;28;20048;-34
2022/07/04 05:07:45;;;;;;;4.10;3.70;;;15.60;99.90;;;;;;5024729;28;20052;-35
2022/07/04 05:10:10;;;;;;;6.05;4.25;;;15.60;99.90;;;;;;5025946;28;20028;-34
2022/07/04 05:12:36;;;;;;;6.28;4.60;;;15.60;99.90;;;;;;5024911;28;20021;-35
2022/07/04 05:15:02;;;;;;;5.53;4.20;;;15.60;99.90;;;;;;5025145;28;20026;-35
2022/07/04 05:17:28;;;;;;;4.35;3.95;;;15.60;99.90;;;;;;5024663;28;20028;-34
2022/07/04 05:19:53;;;;;;;4.35;3.38;;;15.60;99.90;;;;;;5025316;28;20083;-34
2022/07/04 05:22:19;;;;;;;5.50;3.53;;;15.60;99.90;;;;;;5025027;28;20559;-34
2022/07/04 05:24:44;;;;;;;4.20;3.80;;;15.60;99.90;;;;;;5025716;28;20392;-34
2022/07/04 05:27:10;;;;;;;4.95;3.22;;;15.70;99.90;;;;;;5025548;28;20461;-34
2022/07/04 05:29:36;;;;;;;4.38;3.40;;;15.70;99.90;;;;;;5024451;28;20024;-34
2022/07/04 05:32:02;;;;;;;5.07;3.47;;;15.70;99.90;;;;;;5025212;28;20033;-34
2022/07/04 05:34:28;;;;;;;3.17;2.97;;;15.70;99.90;;;;;;5024623;28;20029;-34
2022/07/04 05:36:54;;;;;;;4.90;3.25;;;15.70;99.90;;;;;;5024973;28;20037;-35
2022/07/04 05:39:20;;;;;;;3.70;2.50;;;15.80;99.90;;;;;;5018640;28;20034;-33
2022/07/04 05:41:45;;;;;;;3.42;2.88;;;15.80;99.90;;;;;;5024998;28;20033;-35
2022/07/04 05:44:11;;;;;;;4.00;2.90;;;15.80;99.90;;;;;;5028564;28;20536;-35
2022/07/04 05:46:37;;;;;;;3.97;3.08;;;15.90;99.90;;;;;;5022110;28;20566;-34
2022/07/04 05:49:02;;;;;;;5.70;2.95;;;15.90;99.90;;;;;;5024417;28;20049;-35
2022/07/04 05:51:28;;;;;;;5.82;3.15;;;16.00;99.90;;;;;;5023286;28;20056;-35
2022/07/04 05:53:54;;;;;;;3.20;2.78;;;16.10;99.90;;;;;;5018343;28;20049;-35
2022/07/04 05:56:19;;;;;;;4.22;2.90;;;16.20;99.90;;;;;;5017963;28;20496;-34
2022/07/04 05:58:45;;;;;;;3.53;2.90;;;16.20;99.90;;;;;;5019582;28;20040;-34
2022/07/04 06:01:10;;;;;;;4.50;3.22;;;16.30;99.90;;;;;;5015118;28;20053;-34
2022/07/04 06:03:38;;;;;;;3.97;2.47;;;16.40;99.90;;;;;;5022379;28;20481;-35
2022/07/04 06:06:04;;;;;;;5.35;3.08;;;16.40;99.90;;;;;;5014203;28;20083;-36
2022/07/04 06:08:30;;;;;;;6.50;3.08;;;16.60;99.90;;;;;;5023697;28;20018;-35
2022/07/04 06:10:56;;;;;;;4.60;2.78;;;16.70;99.90;;;;;;5023821;28;20517;-35
2022/07/04 06:13:22;;;;;;;4.28;2.60;;;16.90;99.90;;;;;;5024603;28;20032;-36
2022/07/04 06:15:47;;;;;;;6.40;3.33;;;17.00;99.90;;;;;;5024031;28;20458;-35
2022/07/04 06:18:13;;;;;;;3.83;2.67;;;17.20;99.90;;;;;;5023394;28;20021;-34
2022/07/04 06:20:42;;;;;;;2.97;2.58;;;17.30;99.90;;;;;;5023159;28;20025;-34
2022/07/04 06:23:08;;;;;;;3.60;2.25;;;17.40;99.90;;;;;;5026453;28;20034;-35
2022/07/04 06:25:34;;;;;;;4.30;2.70;;;17.50;99.90;;;;;;5025906;28;20732;-34
2022/07/04 06:28:00;;;;;;;3.40;2.40;;;17.60;99.90;;;;;;5027425;28;20029;-35
2022/07/04 06:30:26;;;;;;;4.75;2.10;;;17.70;99.90;;;;;;5027075;28;20112;-35
2022/07/04 06:32:54;;;;;;;2.95;2.20;;;17.80;99.90;;;;;;5026589;28;20017;-35
2022/07/04 06:38:06;;;;;;;3.40;2.55;;;18.10;99.90;;;;;;5028545;28;20092;-35
2022/07/04 06:40:33;;;;;;;4.18;2.35;;;18.30;99.90;;;;;;5026593;28;20034;-34
2022/07/04 06:42:58;;;;;;;3.80;2.85;;;18.40;99.90;;;;;;5027899;28;20033;-35
2022/07/04 06:45:24;;;;;;;5.80;2.95;;;18.60;99.90;;;;;;5027885;28;20528;-35
2022/07/04 06:47:50;;;;;;;5.63;2.90;;;18.70;99.90;;;;;;5027727;28;20474;-34
2022/07/04 06:50:16;;;;;;;3.90;2.47;;;18.70;99.90;;;;;;5027635;28;20152;-35
2022/07/04 06:52:41;;;;;;;4.30;2.40;;;18.70;99.90;;;;;;5028209;28;20116;-36
2022/07/04 06:55:07;;;;;;;5.78;2.83;;;18.70;99.90;;;;;;5027356;28;20029;-34
2022/07/04 06:57:33;;;;;;;4.78;2.70;;;18.70;99.90;;;;;;5026949;28;20586;-35
2022/07/04 06:59:58;;;;;;;4.10;2.60;;;18.80;99.90;;;;;;5027404;28;20087;-36
2022/07/04 07:02:24;;;;;;;4.07;2.72;;;18.70;99.90;;;;;;5027238;28;20461;-35
2022/07/04 07:04:49;;;;;;;2.75;2.45;;;18.70;99.90;;;;;;5027940;28;20029;-34
2022/07/04 07:07:15;;;;;;;6.35;2.45;;;18.70;99.90;;;;;;5026812;28;20028;-36
2022/07/04 07:09:40;;;;;;;3.08;2.20;;;18.80;99.90;;;;;;5026974;28;20026;-36
2022/07/04 07:12:06;;;;;;;5.47;2.47;;;18.90;99.90;;;;;;5027546;28;20040;-36
2022/07/04 07:14:32;;;;;;;6.70;2.70;;;19.00;99.90;;;;;;5026939;28;20409;-35
2022/07/04 07:16:59;;;;;;;3.17;2.10;;;19.10;99.90;;;;;;5027608;28;20029;-35
2022/07/04 07:19:24;;;;;;;4.00;2.58;;;19.10;99.90;;;;;;5026519;28;20025;-34
2022/07/04 07:21:50;;;;;;;3.45;2.05;;;19.30;99.90;;;;;;5026350;28;20091;-34
2022/07/04 07:24:15;;;;;;;5.63;3.40;;;19.30;99.90;;;;;;5027210;28;20103;-34
2022/07/04 07:26:41;;;;;;;5.70;3.00;;;19.40;99.90;;;;;;5027045;28;20021;-34
2022/07/04 07:29:07;;;;;;;4.53;3.40;;;19.40;99.90;;;;;;5026746;28;20439;-35
2022/07/04 07:31:32;;;;;;;3.90;2.67;;;19.50;99.90;;;;;;5026914;28;20029;-34
2022/07/04 07:33:58;;;;;;;6.30;2.88;;;19.50;99.90;;;;;;5029384;28;20017;-36
2022/07/04 07:36:23;;;;;;;4.18;2.38;;;19.60;99.90;;;;;;5043428;28;20028;-37
2022/07/04 07:38:53;;;;;;;2.63;2.42;;;19.60;99.90;;;;;;5026972;28;20550;-35
2022/07/04 07:41:19;;;;;;;3.30;2.92;;;19.70;99.90;;;;;;5027265;28;20030;-35
2022/07/04 07:43:44;;;;;;;4.53;2.70;;;19.70;99.90;;;;;;5025062;28;20466;-35
2022/07/04 07:46:10;;;;;;;4.43;2.50;;;19.80;99.90;;;;;;5027252;28;20421;-35
2022/07/04 07:48:35;;;;;;;3.70;2.67;;;19.80;99.90;;;;;;5026141;28;20044;-35
2022/07/04 07:51:01;;;;;;;3.85;2.20;;;19.90;99.90;;;;;;5026223;28;20540;-35
2022/07/04 07:53:27;;;;;;;3.55;2.67;;;19.80;99.90;;;;;;5026118;28;20029;-35
2022/07/04 07:55:52;;;;;;;4.50;3.17;;;19.70;99.90;;;;;;5027066;28;20501;-36
2022/07/04 07:58:19;;;;;;;7.82;2.90;;;19.60;99.90;;;;;;5025383;28;20488;-35
2022/07/04 08:00:45;;;;;;;6.18;3.38;;;19.50;99.90;;;;;;5026340;28;20060;-36
2022/07/04 08:05:55;;;;;;;5.03;3.15;;;19.70;99.90;;;;;;5027135;28;20036;-35
2022/07/04 08:08:23;;;;;;;6.43;3.78;;;19.90;99.90;;;;;;5026323;28;20022;-34
2022/07/04 08:10:48;;;;;;;5.68;3.70;;;20.10;99.90;;;;;;5025688;28;20045;-34
2022/07/04 08:13:14;;;;;;;4.32;3.30;;;20.20;99.90;;;;;;5026036;28;20029;-36
2022/07/04 08:15:39;;;;;;;6.88;3.80;;;20.30;99.90;;;;;;5026084;28;20111;-36
2022/07/04 08:18:05;;;;;;;6.43;4.28;;;20.30;99.90;;;;;;5025983;28;20029;-35
2022/07/04 08:20:31;;;;;;;7.03;3.65;;;20.40;99.90;;;;;;5025521;28;20033;-35
2022/07/04 08:22:56;;;;;;;4.75;3.50;;;20.50;99.90;;;;;;5025752;28;20044;-35
2022/07/04 08:25:22;;;;;;;4.70;3.30;;;20.60;99.90;;;;;;5025815;28;20022;-35
2022/07/04 08:27:47;;;;;;;5.55;3.67;;;20.70;99.90;;;;;;5026017;28;20469;-35
2022/07/04 08:30:13;;;;;;;5.45;3.63;;;20.70;99.90;;;;;;5025525;28;20020;-34
2022/07/04 08:32:39;;;;;;;6.20;4.18;;;20.80;99.90;;;;;;5025669;28;20029;-35
2022/07/04 08:35:07;;;;;;;5.88;3.60;;;20.90;99.90;;;;;;5024350;28;20047;-34
2022/07/04 08:37:33;;;;;;;5.97;4.15;;;20.90;99.90;;;;;;5026093;28;20022;-34
2022/07/04 08:40:06;;;;;;;4.72;3.60;;;21.00;99.90;;;;;;5025845;28;20049;-35
2022/07/04 08:42:36;;;;;;;5.10;3.40;;;21.10;99.90;;;;;;5025892;28;20067;-35
2022/07/04 08:45:03;;;;;;;5.53;4.00;;;21.20;99.90;;;;;;5025345;28;20026;-35
2022/07/04 08:47:33;;;;;;;6.45;3.47;;;21.20;99.90;;;;;;5023869;28;20358;-35
2022/07/04 08:50:11;;;;;;;5.47;3.83;;;21.30;99.90;;;;;;5024732;28;20059;-36
2022/07/04 08:52:43;;;;;;;5.57;3.10;;;21.30;99.90;;;;;;5024928;28;20036;-36
2022/07/04 09:00:40;;;;;;;5.97;3.17;;;21.30;99.90;;;;;;5024347;28;20147;-36
2022/07/04 09:03:06;;;;;;;4.05;2.90;;;21.20;99.90;;;;;;5026007;28;20112;-36
2022/07/04 09:05:33;;;;;;;4.53;2.55;;;21.10;99.90;;;;;;5025455;28;20542;-34
2022/07/04 09:08:00;;;;;;;4.68;3.30;;;21.10;99.90;;;;;;5025670;28;20018;-35
2022/07/04 09:10:26;;;;;;;5.75;3.40;;;21.00;99.90;;;;;;5025550;28;20055;-40
2022/07/04 09:12:52;;;;;;;7.25;3.88;;;21.00;99.90;;;;;;5025285;28;20187;-35
2022/07/04 09:15:18;;;;;;;3.90;3.50;;;21.20;99.90;;;;;;5024781;28;20561;-36
2022/07/04 09:17:44;;;;;;;4.63;2.95;;;21.30;99.90;;;;;;5025893;28;20108;-33
2022/07/04 09:20:19;;;;;;;6.07;3.78;;;21.40;99.90;;;;;;5025235;28;20022;-34
2022/07/04 09:22:46;;;;;;;6.35;3.63;;;21.50;99.90;;;;;;5015027;28;20041;-35
2022/07/04 09:25:15;;;;;;;8.43;4.05;;;21.60;99.90;;;;;;5025511;28;20026;-34
2022/07/04 09:27:47;;;;;;;7.22;4.55;;;21.50;99.90;;;;;;5024821;28;20036;-35
2022/07/04 09:30:17;;;;;;;4.93;3.20;;;21.40;99.90;;;;;;5025392;28;20029;-35
2022/07/04 09:32:52;;;;;;;7.55;4.65;;;21.30;99.90;;;;;;5025704;28;20017;-36
2022/07/04 09:35:23;;;;;;;5.43;3.78;;;21.20;99.90;;;;;;5024070;28;20040;-33
2022/07/04 09:37:59;;;;;;;5.47;3.35;;;21.20;99.90;;;;;;5025247;28;20025;-34
2022/07/04 09:41:24;;;;;;;5.63;3.42;;;21.10;99.90;;;;;;5024725;28;20038;-34
2022/07/04 09:43:24;;;;;;;6.15;2.95;;;21.00;99.90;;;;;;5024224;28;20041;-35
2022/07/04 09:45:54;;;;;;;5.45;2.90;;;20.90;99.90;;;;;;5026187;28;20017;-34
2022/07/04 09:48:20;;;;;;;2.95;2.20;;;20.80;99.90;;;;;;5024823;28;20034;-35
2022/07/04 09:50:46;;;;;;;5.25;2.20;;;20.70;99.90;;;;;;5024170;28;20021;-36
2022/07/04 09:53:11;;;;;;;4.90;2.22;;;20.70;99.90;;;;;;5025687;28;20500;-35
2022/07/04 09:55:38;;;;;;;8.35;2.40;;;20.70;99.90;;;;;;5024682;28;20293;-35
2022/07/04 09:58:09;;;;;;;2.47;2.08;;;20.70;99.90;;;;;;5028633;28;20025;-36
2022/07/04 10:00:45;;;;;;;3.10;1.85;;;20.80;99.90;;;;;;5028274;28;20057;-34
2022/07/04 10:03:17;;;;;;;3.22;1.90;;;20.80;99.90;;;;;;5027927;28;20440;-35
2022/07/04 10:05:44;;;;;;;2.73;1.47;;;20.90;99.90;;;;;;5029139;28;20029;-35
2022/07/04 10:08:10;;;;;;;5.93;1.80;;;21.00;99.90;;;;;;5029047;28;20526;-34
2022/07/04 10:10:44;;;;;;;2.42;1.52;;;21.00;99.90;;;;;;5027635;28;20021;-35
2022/07/04 10:13:11;;;;;;;3.00;1.40;;;21.10;99.90;;;;;;5028170;28;20079;-35
2022/07/04 10:15:39;;;;;;;3.05;1.30;;;21.20;99.90;;;;;;5027828;28;20406;-35
2022/07/04 10:18:07;;;;;;;3.55;1.45;;;21.20;99.90;;;;;;5028122;28;20139;-36
2022/07/04 10:20:33;;;;;;;2.47;1.35;;;21.30;99.50;;;;;;5027923;28;20041;-35
2022/07/04 10:22:59;;;;;;;3.72;1.27;;;21.50;99.40;;;;;;5027890;28;20038;-35
2022/07/04 10:25:25;;;;;;;2.08;1.00;;;21.60;99.00;;;;;;5027153;28;20096;-35
2022/07/04 10:27:51;;;;;;;3.35;1.30;;;21.80;98.60;;;;;;5028104;28;20511;-35
2022/07/04 10:30:26;;;;;;;2.78;1.20;;;21.90;98.30;;;;;;5028590;28;20040;-35
2022/07/04 10:32:53;;;;;;;1.85;1.20;;;22.00;98.10;;;;;;5027335;28;20024;-35
2022/07/04 10:35:50;;;;;;;3.08;1.00;;;22.10;97.80;;;;;;5028058;28;20799;-34
2022/07/04 10:38:17;;;;;;;3.78;1.45;;;22.20;97.30;;;;;;5026773;28;20092;-36
2022/07/04 10:40:48;;;;;;;3.13;1.20;;;22.20;96.90;;;;;;5016651;28;20075;-35
2022/07/04 10:43:33;;;;;;;2.55;1.13;;;22.10;97.30;;;;;;5015634;28;20116;-36
2022/07/04 10:46:07;;;;;;;2.50;1.35;;;22.20;97.20;;;;;;5026502;28;20412;-35
2022/07/04 10:48:33;;;;;;;2.90;1.25;;;22.20;97.30;;;;;;5027499;28;20036;-36
2022/07/04 10:51:02;;;;;;;1.98;0.85;;;22.20;97.30;;;;;;5027249;28;20243;-35
2022/07/04 10:53:32;;;;;;;2.17;0.93;;;22.30;97.30;;;;;;5026287;28;20079;-36
2022/07/04 10:56:19;;;;;;;2.47;0.93;;;22.30;97.30;;;;;;5027306;28;20029;-38
2022/07/04 10:58:45;;;;;;;2.60;1.00;;;22.40;97.30;;;;;;5028001;28;20017;-34
2022/07/04 11:01:12;;;;;;;1.58;0.80;;;22.60;97.20;;;;;;5026306;28;20057;-35
2022/07/04 11:03:51;;;;;;;2.92;1.08;;;22.70;97.10;;;;;;5026905;28;20527;-35
2022/07/04 11:06:32;;;;;;;1.13;0.95;;;22.80;96.90;;;;;;5018011;28;20412;-36
2022/07/04 11:09:16;;;;;;;1.88;1.17;;;22.90;96.40;;;;;;5027231;28;20045;-36
2022/07/04 11:12:00;;;;;;;2.78;1.00;;;22.90;96.40;;;;;;5027394;28;20029;-35
2022/07/04 11:14:38;;;;;;;3.15;1.30;;;22.80;96.40;;;;;;5026172;28;20021;-35
2022/07/04 11:17:15;;;;;;;3.60;1.10;;;22.60;96.20;;;;;;5027985;28;20381;-36
2022/07/04 11:19:41;;;;;;;2.00;1.30;;;22.50;96.40;;;;;;5027079;28;20083;-37
2022/07/04 11:22:10;;;;;;;2.85;1.13;;;22.40;96.60;;;;;;5026711;28;20071;-35
2022/07/04 11:24:37;;;;;;;2.90;1.05;;;22.40;96.60;;;;;;5020551;28;20026;-36
2022/07/04 11:27:03;;;;;;;1.40;1.00;;;22.50;96.50;;;;;;5016764;28;20033;-35
2022/07/04 11:29:29;;;;;;;2.00;1.20;;;22.70;96.40;;;;;;5008289;28;20014;-36
2022/07/04 11:31:56;;;;;;;2.15;1.13;;;22.90;96.30;;;;;;5018602;28;20037;-36
2022/07/04 11:34:22;;;;;;;1.20;0.98;;;23.00;95.80;;;;;;5007845;28;20021;-35
2022/07/04 11:36:50;;;;;;;2.20;0.90;;;23.10;95.50;;;;;;5018458;28;20022;-35
2022/07/04 11:39:20;;;;;;;1.77;1.02;;;23.10;95.20;;;;;;5007038;28;20276;-35
2022/07/04 11:47:35;;;;;;;1.80;1.05;;;22.90;94.60;;;;;;5015299;28;20159;-35
2022/07/04 11:50:02;;;;;;;1.75;0.85;;;22.80;94.80;;;;;;5026257;28;20092;-34
2022/07/04 11:52:42;;;;;;;1.25;1.00;;;22.80;95.00;;;;;;5026390;28;20654;-35
2022/07/04 11:55:14;;;;;;;2.15;0.90;;;22.80;94.90;;;;;;5027539;28;20105;-35
2022/07/04 11:57:41;;;;;;;1.67;0.90;;;23.00;94.80;;;;;;5026715;28;20018;-35
2022/07/04 12:00:15;;;;;;;2.72;0.90;;;23.10;94.40;;;;;;5026947;28;20053;-36
2022/07/04 12:02:42;;;;;;;2.78;1.40;;;23.10;94.30;;;;;;5022660;28;20501;-35
2022/07/04 12:05:10;;;;;;;1.17;1.00;;;23.00;93.40;;;;;;5026654;28;20805;-34
2022/07/04 12:07:39;;;;;;;1.77;1.00;;;22.90;94.00;;;;;;5025174;28;20021;-35
2022/07/04 12:10:13;;;;;;;1.75;0.90;;;22.80;94.20;;;;;;5026241;28;20408;-34
2022/07/04 12:13:05;;;;;;;1.90;1.02;;;22.80;94.20;;;;;;5026229;28;20374;-36
2022/07/04 12:15:42;;;;;;;1.93;1.13;;;22.80;93.90;;;;;;5025575;28;20029;-34
2022/07/04 12:18:19;;;;;;;2.78;1.10;;;22.70;93.80;;;;;;5022582;28;20273;-35
2022/07/04 12:20:45;;;;;;;1.65;1.20;;;22.70;93.20;;;;;;5025394;28;20030;-36
2022/07/04 12:23:11;;;;;;;2.90;1.50;;;22.70;92.90;;;;;;5026854;28;20087;-35
2022/07/04 12:25:38;;;;;;;2.22;1.35;;;22.60;92.90;;;;;;5025963;28;20022;-35
2022/07/04 12:28:08;;;;;;;3.30;1.25;;;22.60;93.10;;;;;;5026582;28;20759;-36
2022/07/04 12:30:39;;;;;;;1.83;1.20;;;22.60;93.10;;;;;;5025889;28;20108;-35
2022/07/04 12:33:09;;;;;;;1.92;1.05;;;22.60;93.20;;;;;;5026170;28;20404;-35
2022/07/04 12:35:36;;;;;;;1.63;1.10;;;22.60;93.00;;;;;;5026347;28;20029;-34
2022/07/04 12:38:04;;;;;;;2.45;1.35;;;22.60;92.80;;;;;;5026031;28;20028;-36
2022/07/04 12:40:30;;;;;;;2.88;1.10;;;22.60;92.70;;;;;;5025676;28;20542;-36
2022/07/04 12:42:56;;;;;;;2.53;1.00;;;22.60;92.30;;;;;;5026562;28;20484;-35
2022/07/04 12:45:22;;;;;;;2.38;1.00;;;22.60;92.00;;;;;;5025685;28;20022;-35
2022/07/04 12:47:48;;;;;;;1.48;1.00;;;22.60;91.70;;;;;;5026199;28;20351;-36
2022/07/04 12:50:14;;;;;;;1.08;0.80;;;22.60;91.80;;;;;;5025965;28;20021;-35
2022/07/04 12:52:42;;;;;;;1.83;0.90;;;22.60;91.70;;;;;;5013395;28;20036;-35
2022/07/04 12:55:10;;;;;;;1.20;0.80;;;22.70;91.70;;;;;;5012616;28;20457;-35
2022/07/04 12:57:36;;;;;;;1.83;1.00;;;22.80;91.50;;;;;;5008412;28;20065;-35
2022/07/04 13:00:03;;;;;;;1.58;0.82;;;22.90;91.20;;;;;;5015828;28;20080;-34
2022/07/04 13:02:28;;;;;;;2.65;0.95;;;22.90;90.90;;;;;;5007219;28;20128;-36
2022/07/04 13:04:55;;;;;;;0.68;0.63;;;23.00;91.20;;;;;;5016789;28;20139;-33
2022/07/04 13:07:20;;;;;;;1.17;0.90;;;23.10;91.10;;;;;;5005749;28;20038;-35
2022/07/04 13:09:46;;;;;;;0.70;0.70;;;23.20;91.10;;;;;;5017433;28;20021;-35
2022/07/04 13:12:26;;;;;;;1.02;0.88;;;23.30;91.10;;;;;;5006011;28;20040;-35